createdAt,value
2022-08-23T00:03:05.498Z,101342.28
2022-08-23T00:07:11.815Z,101338.94
2022-08-23T00:11:32.127Z,101335.59
2022-08-23T00:15:33.803Z,101334.38
2022-08-23T00:19:36.846Z,101340.84
2022-08-23T00:23:38.448Z,101334.38
2022-08-23T00:27:40.142Z,101333.31
2022-08-23T00:31:41.920Z,101350.84
2022-08-23T00:35:44.602Z,101362.50
2022-08-23T00:39:46.309Z,101365.41
2022-08-23T00:44:07.361Z,101361.06
2022-08-23T00:48:09.035Z,101368.13
2022-08-23T00:52:31.006Z,101355.63
2022-08-23T00:56:36.404Z,101374.38
2022-08-23T01:00:38.080Z,101366.84
2022-08-23T01:04:44.550Z,101358.94
2022-08-23T01:08:52.299Z,101358.75
2022-08-23T01:13:03.899Z,101367.72
2022-08-23T01:17:12.585Z,101357.28
2022-08-23T01:21:21.856Z,101356.88
2022-08-23T01:25:25.894Z,101361.88
2022-08-23T01:29:28.019Z,101360.22
2022-08-23T01:33:29.837Z,101362.72
2022-08-23T01:37:31.709Z,101353.34
2022-08-23T01:41:33.782Z,101359.38
2022-08-23T01:45:37.226Z,101348.13
2022-08-23T01:49:41.990Z,101344.81
2022-08-23T01:53:44.058Z,101349.81
2022-08-23T01:57:49.477Z,101342.28
2022-08-23T02:01:53.533Z,101338.50
2022-08-23T02:05:57.854Z,101329.34
2022-08-23T02:09:59.713Z,101343.94
2022-08-23T02:14:05.633Z,101344.78
2022-08-23T02:18:16.312Z,101355.63
2022-08-23T02:22:18.721Z,101347.28
2022-08-23T02:26:20.399Z,101338.50
2022-08-23T02:30:33.027Z,101347.50
2022-08-23T02:34:36.444Z,101349.56
2022-08-23T02:38:38.065Z,101351.03
2022-08-23T02:42:40.570Z,101346.44
2022-08-23T02:46:42.923Z,101356.88
2022-08-23T02:50:44.658Z,101365.59
2022-08-23T02:54:46.873Z,101360.19
2022-08-23T02:58:54.520Z,101361.00
2022-08-23T03:02:57.529Z,101349.34
2022-08-23T03:06:59.956Z,101355.81
2022-08-23T03:11:02.830Z,101355.81
2022-08-23T03:15:11.926Z,101359.56
2022-08-23T03:19:13.687Z,101356.00
2022-08-23T03:23:15.324Z,101356.88
2022-08-23T03:27:17.184Z,101354.16
2022-08-23T03:31:19.718Z,101359.56
2022-08-23T03:35:42.393Z,101348.53
2022-08-23T03:39:46.609Z,101352.50
2022-08-23T03:43:49.154Z,101353.75
2022-08-23T03:47:51.823Z,101355.00
2022-08-23T03:51:53.639Z,101360.81
2022-08-23T03:55:56.456Z,101363.97
2022-08-23T03:59:59.905Z,101362.94
2022-08-23T04:04:04.039Z,101362.28
2022-08-23T04:08:10.578Z,101355.63
2022-08-23T04:12:17.845Z,101360.22
2022-08-23T04:16:20.153Z,101365.66
2022-08-23T04:20:21.953Z,101371.47
2022-08-23T04:24:30.832Z,101374.19
2022-08-23T04:28:36.618Z,101365.44
2022-08-23T04:32:38.217Z,101372.94
2022-08-23T04:36:44.862Z,101373.59
2022-08-23T04:41:16.121Z,101374.22
2022-08-23T04:45:20.638Z,101375.88
2022-08-23T04:49:25.626Z,101373.41
2022-08-23T04:53:30.327Z,101367.75
2022-08-23T04:57:54.692Z,101379.03
2022-08-23T05:02:00.290Z,101388.19
2022-08-23T05:06:05.153Z,101398.81
2022-08-23T05:10:15.208Z,101402.97
2022-08-23T05:14:21.559Z,101408.63
2022-08-23T05:18:24.718Z,101404.44
2022-08-23T05:22:26.494Z,101399.63
2022-08-23T05:27:03.469Z,101395.25
2022-08-23T05:31:05.438Z,101391.09
2022-08-23T05:35:17.984Z,101402.94
2022-08-23T05:39:25.767Z,101407.75
2022-08-23T05:43:38.832Z,101410.66
2022-08-23T05:47:40.709Z,101416.09
2022-08-23T05:51:56.887Z,101419.63
2022-08-23T05:56:20.187Z,101420.22
2022-08-23T06:00:21.962Z,101420.22
2022-08-23T06:04:38.982Z,101422.75
2022-08-23T06:08:41.187Z,101420.66
2022-08-23T06:12:42.899Z,101423.34
2022-08-23T06:16:47.682Z,101428.13
2022-08-23T06:21:05.711Z,101429.75
2022-08-23T06:25:16.297Z,101430.97
2022-08-23T06:29:46.036Z,101438.84
2022-08-23T06:34:18.581Z,101434.63
2022-08-23T06:38:38.127Z,101433.97
2022-08-23T06:42:58.516Z,101438.72
2022-08-23T06:47:09.086Z,101439.09
2022-08-23T06:51:29.120Z,101438.81
2022-08-23T06:55:49.731Z,101433.13
2022-08-23T07:00:12.440Z,101439.75
2022-08-23T07:04:35.727Z,101437.97
2022-08-23T07:09:05.192Z,101452.28
2022-08-23T07:13:07.119Z,101454.31
2022-08-23T07:17:09.631Z,101446.50
2022-08-23T07:21:12.814Z,101453.94
2022-08-23T07:25:17.187Z,101456.94
2022-08-23T07:29:22.874Z,101456.66
2022-08-23T07:33:24.520Z,101455.31
2022-08-23T07:37:40.876Z,101456.09
2022-08-23T07:41:43.639Z,101464.38
2022-08-23T07:45:48.046Z,101468.94
2022-08-23T07:49:50.871Z,101470.53
2022-08-23T07:53:53.250Z,101475.00
2022-08-23T07:57:56.223Z,101469.88
2022-08-23T08:02:14.191Z,101475.44
2022-08-23T08:06:19.567Z,101473.94
2022-08-23T08:10:21.377Z,101471.94
2022-08-23T08:14:23.905Z,101484.78
2022-08-23T08:18:29.938Z,101485.69
2022-08-23T08:22:58.526Z,101490.50
2022-08-23T08:27:22.064Z,101502.66
2022-08-23T08:31:25.150Z,101507.19
2022-08-23T08:35:26.887Z,101504.94
2022-08-23T08:39:31.662Z,101510.75
2022-08-23T08:43:57.579Z,101510.91
2022-08-23T08:48:13.663Z,101515.03
2022-08-23T08:52:27.788Z,101520.03
2022-08-23T08:56:40.427Z,101518.28
2022-08-23T09:00:55.177Z,101519.47
2022-08-23T09:05:01.132Z,101515.78
2022-08-23T09:09:23.923Z,101518.41
2022-08-23T09:14:09.320Z,101517.63
2022-08-23T09:18:14.609Z,101516.78
2022-08-23T09:22:30.670Z,101515.50
2022-08-23T09:26:32.669Z,101515.25
2022-08-23T09:30:55.003Z,101518.19
2022-08-23T09:35:06.914Z,101521.41
2022-08-23T09:39:30.678Z,101521.84
2022-08-23T09:43:44.665Z,101517.69
2022-08-23T09:47:46.972Z,101524.94
2022-08-23T09:51:54.236Z,101515.78
2022-08-23T09:55:58.765Z,101514.94
2022-08-23T10:00:15.015Z,101516.81
2022-08-23T10:04:37.692Z,101513.63
2022-08-23T10:08:58.286Z,101513.63
2022-08-23T10:13:04.093Z,101505.19
2022-08-23T10:17:30.470Z,101500.06
2022-08-23T10:21:54.354Z,101505.63
2022-08-23T10:26:01.653Z,101493.41
2022-08-23T10:30:23.665Z,101502.41
2022-08-23T10:34:53.186Z,101495.94
2022-08-23T10:39:03.609Z,101496.06
2022-08-23T10:43:14.884Z,101494.66
2022-08-23T10:47:21.338Z,101498.19
2022-08-23T10:51:42.869Z,101490.22
2022-08-23T10:56:04.271Z,101484.44
2022-08-23T11:00:21.545Z,101485.78
2022-08-23T11:04:38.291Z,101493.63
2022-08-23T11:08:59.197Z,101491.38
2022-08-23T11:13:06.742Z,101485.97
2022-08-23T11:17:29.876Z,101498.25
2022-08-23T11:21:38.553Z,101493.94
2022-08-23T11:25:45.947Z,101504.63
2022-08-23T11:29:48.225Z,101502.31
2022-08-23T11:34:28.964Z,101508.59
2022-08-23T11:38:48.801Z,101507.63
2022-08-23T11:42:53.194Z,101517.56
2022-08-23T11:46:55.815Z,101513.50
2022-08-23T11:51:20.970Z,101513.00
2022-08-23T11:55:44.104Z,101511.84
2022-08-23T12:00:10.905Z,101510.34
2022-08-23T12:04:37.682Z,101519.66
2022-08-23T12:09:04.593Z,101512.34
2022-08-23T12:13:18.372Z,101513.97
2022-08-23T12:17:25.606Z,101519.81
2022-08-23T12:21:39.460Z,101514.63
2022-08-23T12:25:42.107Z,101518.56
2022-08-23T12:30:05.480Z,101524.38
2022-08-23T12:34:34.117Z,101528.63
2022-08-23T12:38:42.522Z,101527.22
2022-08-23T12:42:44.198Z,101523.28
2022-08-23T12:46:48.993Z,101517.38
2022-08-23T12:50:58.631Z,101525.47
2022-08-23T12:55:00.790Z,101517.81
2022-08-23T12:59:07.359Z,101527.91
2022-08-23T13:03:22.123Z,101525.28
2022-08-23T13:07:24.636Z,101511.00
2022-08-23T13:11:29.421Z,101516.31
2022-08-23T13:15:59.246Z,101524.59
2022-08-23T13:20:00.920Z,101516.63
2022-08-23T13:24:38.750Z,101515.31
2022-08-23T13:28:40.750Z,101521.34
2022-08-23T13:32:48.713Z,101506.63
2022-08-23T13:36:50.376Z,101507.50
2022-08-23T13:40:59.214Z,101508.44
2022-08-23T13:45:13.471Z,101511.53
2022-08-23T13:49:24.840Z,101509.19
2022-08-23T13:53:29.291Z,101509.84
2022-08-23T13:57:32.287Z,101514.91
2022-08-23T14:01:39.723Z,101511.19
2022-08-23T14:05:41.222Z,101515.63
2022-08-23T14:09:43.229Z,101508.13
2022-08-23T14:13:47.489Z,101508.34
2022-08-23T14:17:51.834Z,101512.19
2022-08-23T14:21:54.129Z,101515.16
2022-08-23T14:25:56.716Z,101519.66
2022-08-23T14:29:58.393Z,101523.28
2022-08-23T14:34:02.205Z,101515.66
2022-08-23T14:38:13.433Z,101519.22
2022-08-23T14:42:19.487Z,101509.69
2022-08-23T14:46:23.074Z,101519.78
2022-08-23T14:50:24.730Z,101522.47
2022-08-23T14:54:29.845Z,101523.72
2022-08-23T14:58:48.557Z,101533.56
2022-08-23T15:02:50.335Z,101521.97
2022-08-23T15:07:16.709Z,101522.78
2022-08-23T15:15:37.531Z,101525.59
2022-08-23T15:19:39.874Z,101541.34
2022-08-23T15:23:43.983Z,101529.25
2022-08-23T15:27:47.159Z,101541.84
2022-08-23T15:31:48.750Z,101541.84
2022-08-23T15:35:52.236Z,101532.84
2022-08-23T15:39:54.205Z,101545.84
2022-08-23T15:43:55.797Z,101543.31
2022-08-23T15:48:01.064Z,101539.19
2022-08-23T15:52:03.131Z,101534.94
2022-08-23T15:56:15.251Z,101526.59
2022-08-23T16:00:19.993Z,101525.91
2022-08-23T16:04:21.706Z,101517.38
2022-08-23T16:08:27.566Z,101517.25
2022-08-23T16:12:29.808Z,101520.22
2022-08-23T16:16:36.662Z,101515.56
2022-08-23T16:20:38.343Z,101513.44
2022-08-23T16:24:40.002Z,101506.44
2022-08-23T16:28:42.289Z,101513.31
2022-08-23T16:32:43.915Z,101509.63
2022-08-23T16:36:51.706Z,101513.84
2022-08-23T16:40:53.302Z,101521.34
2022-08-23T16:44:54.902Z,101530.59
2022-08-23T16:48:56.634Z,101530.25
2022-08-23T16:52:58.796Z,101528.13
2022-08-23T16:57:02.044Z,101529.56
2022-08-23T17:01:04.686Z,101526.81
2022-08-23T17:05:10.397Z,101533.72
2022-08-23T17:09:13.106Z,101527.56
2022-08-23T17:13:15.835Z,101527.56
2022-08-23T17:17:17.865Z,101534.72
2022-08-23T17:21:19.455Z,101529.47
2022-08-23T17:25:21.850Z,101539.84
2022-08-23T17:29:23.484Z,101542.72
2022-08-23T17:33:25.335Z,101546.53
2022-08-23T17:37:27.058Z,101548.31
2022-08-23T17:41:28.786Z,101556.41
2022-08-23T17:45:47.255Z,101561.03
2022-08-23T17:49:49.428Z,101565.19
2022-08-23T17:53:51.106Z,101571.94
2022-08-23T17:57:56.358Z,101571.97
2022-08-23T18:02:04.657Z,101578.59
2022-08-23T18:06:16.626Z,101578.63
2022-08-23T18:10:18.789Z,101580.72
2022-08-23T18:14:20.544Z,101578.09
2022-08-23T18:18:22.150Z,101585.81
2022-08-23T18:22:23.771Z,101583.41
2022-08-23T18:26:44.410Z,101596.66
2022-08-23T18:30:54.761Z,101598.44
2022-08-23T18:34:56.490Z,101597.22
2022-08-23T18:38:58.462Z,101609.66
2022-08-23T18:43:00.036Z,101615.56
2022-08-23T18:47:02.893Z,101623.16
2022-08-23T18:51:05.550Z,101626.34
2022-08-23T18:55:17.549Z,101625.63
2022-08-23T18:59:19.434Z,101635.56
2022-08-23T19:03:21.458Z,101636.47
2022-08-23T19:07:23.109Z,101636.09
2022-08-23T19:11:24.892Z,101639.97
2022-08-23T19:15:29.479Z,101643.38
2022-08-23T19:19:31.514Z,101652.47
2022-08-23T19:23:33.644Z,101663.19
2022-08-23T19:27:35.317Z,101659.84
2022-08-23T19:31:42.809Z,101665.28
2022-08-23T19:35:44.690Z,101664.53
2022-08-23T19:39:46.524Z,101667.94
2022-08-23T19:43:48.179Z,101667.56
2022-08-23T19:47:49.884Z,101669.69
2022-08-23T19:51:55.618Z,101668.00
2022-08-23T19:56:01.875Z,101676.03
2022-08-23T20:00:13.532Z,101680.28
2022-08-23T20:04:17.988Z,101678.22
2022-08-23T20:08:19.661Z,101676.63
2022-08-23T20:12:21.269Z,101683.78
2022-08-23T20:16:23.796Z,101674.16
2022-08-23T20:20:25.832Z,101690.97
2022-08-23T20:24:48.703Z,101679.91
2022-08-23T20:28:59.029Z,101686.84
2022-08-23T20:33:02.261Z,101685.63
2022-08-23T20:37:05.187Z,101686.06
2022-08-23T20:41:08.062Z,101685.69
2022-08-23T20:45:10.648Z,101684.84
2022-08-23T20:49:12.770Z,101693.84
2022-08-23T20:53:14.763Z,101685.69
2022-08-23T20:57:16.452Z,101683.19
2022-08-23T21:01:18.848Z,101689.03
2022-08-23T21:05:20.657Z,101690.53
2022-08-23T21:09:27.454Z,101687.03
2022-08-23T21:13:31.133Z,101692.09
2022-08-23T21:17:32.863Z,101695.47
2022-08-23T21:21:34.492Z,101698.00
2022-08-23T21:25:36.146Z,101696.19
2022-08-23T21:29:38.555Z,101691.16
2022-08-23T21:33:42.115Z,101693.72
2022-08-23T21:37:43.720Z,101688.91
2022-08-23T21:41:48.198Z,101690.19
2022-08-23T21:45:49.840Z,101690.00
2022-08-23T21:49:52.381Z,101690.25
2022-08-23T21:53:54.018Z,101696.09
2022-08-23T21:57:55.608Z,101688.81
2022-08-23T22:01:57.313Z,101683.19
2022-08-23T22:05:59.000Z,101692.84
2022-08-23T22:10:02.093Z,101684.91
2022-08-23T22:14:03.700Z,101694.09
2022-08-23T22:18:05.975Z,101696.22
2022-08-23T22:22:07.701Z,101693.25
2022-08-23T22:26:09.847Z,101690.13
2022-08-23T22:30:11.841Z,101687.03
2022-08-23T22:34:13.522Z,101689.78
2022-08-23T22:38:15.200Z,101704.22
2022-08-23T22:42:16.892Z,101701.50
2022-08-23T22:46:19.361Z,101687.75
2022-08-23T22:50:21.015Z,101695.91
2022-08-23T22:54:23.374Z,101697.56
2022-08-23T22:58:25.101Z,101696.31
2022-08-23T23:02:26.917Z,101697.81
2022-08-23T23:06:29.839Z,101700.50
2022-08-23T23:10:31.468Z,101693.63
2022-08-23T23:14:33.529Z,101687.78
2022-08-23T23:18:35.727Z,101684.47
2022-08-23T23:22:37.317Z,101681.53
2022-08-23T23:26:39.425Z,101688.84
2022-08-23T23:30:43.344Z,101692.19
2022-08-23T23:34:45.198Z,101683.88
2022-08-23T23:38:47.047Z,101694.31
2022-08-23T23:42:48.862Z,101689.06
2022-08-23T23:46:50.521Z,101690.97
2022-08-23T23:50:52.122Z,101688.69
2022-08-23T23:54:53.761Z,101694.13
2022-08-23T23:58:56.807Z,101692.66
